Etters, Pennsylvania
Current Conditions -  °F | °C
As of 12:56 AM on Friday 28 Nov 2014 (Local Time) from KMDT Reporting Station
Scattered Clouds Scattered Clouds  
Wind Chill: 24°   Ceiling: Unl
Heat Index: 33°   Visibility: 10mi
Dew Point: 23°   Wind: 12mph
Humidity: 66%   Direction: 300°WNW
Pressure: 30.13"   Gusts: NA
Location:  40.15°N, 76.79°W
Report Text: KMDT 280556Z 30010KT 10SM FEW038 SCT090 01/M05 A3013 RMK AO2 SLP208 T00061050 10017 20000 53005
Loading
Personal Weather Stations






























Interactive Weather Map New forecast layout! Learn more

10-Day Weather Forecast

Advertisements
Track Severe Weather on mobile